sensor_id;sensor_type;location;lat;lon;timestamp;temperature;humidity
11436;DHT22;5774;48.778;8.904;2022-07-03T00:02:23;15.90;99.90
11436;DHT22;5774;48.778;8.904;2022-07-03T00:04:50;15.90;99.90
11436;DHT22;5774;48.778;8.904;2022-07-03T00:07:17;15.90;99.90
11436;DHT22;5774;48.778;8.904;2022-07-03T00:09:44;16.00;99.90
11436;DHT22;5774;48.778;8.904;2022-07-03T00:12:11;15.90;99.90
11436;DHT22;5774;48.778;8.904;2022-07-03T00:14:39;15.90;99.90
11436;DHT22;5774;48.778;8.904;2022-07-03T00:17:06;15.90;99.90
11436;DHT22;5774;48.778;8.904;2022-07-03T00:19:33;15.90;99.90
11436;DHT22;5774;48.778;8.904;2022-07-03T00:22:02;15.90;99.90
11436;DHT22;5774;48.778;8.904;2022-07-03T00:24:32;15.80;99.90
11436;DHT22;5774;48.778;8.904;2022-07-03T00:26:59;15.90;99.90
11436;DHT22;5774;48.778;8.904;2022-07-03T00:29:29;15.80;99.90
11436;DHT22;5774;48.778;8.904;2022-07-03T00:31:59;15.80;99.90
11436;DHT22;5774;48.778;8.904;2022-07-03T00:34:26;15.80;99.90
11436;DHT22;5774;48.778;8.904;2022-07-03T00:36:54;15.80;99.90
11436;DHT22;5774;48.778;8.904;2022-07-03T00:39:23;15.80;99.90
11436;DHT22;5774;48.778;8.904;2022-07-03T00:41:58;15.80;99.90
11436;DHT22;5774;48.778;8.904;2022-07-03T00:44:27;15.80;99.90
11436;DHT22;5774;48.778;8.904;2022-07-03T00:46:55;15.80;99.90
11436;DHT22;5774;48.778;8.904;2022-07-03T00:49:23;15.80;99.90
11436;DHT22;5774;48.778;8.904;2022-07-03T00:51:51;15.90;99.90
11436;DHT22;5774;48.778;8.904;2022-07-03T00:54:21;15.80;99.90
11436;DHT22;5774;48.778;8.904;2022-07-03T00:56:49;15.80;99.90
11436;DHT22;5774;48.778;8.904;2022-07-03T00:59:18;15.80;99.90
11436;DHT22;5774;48.778;8.904;2022-07-03T01:01:45;15.80;99.90
11436;DHT22;5774;48.778;8.904;2022-07-03T01:04:17;15.80;99.90
11436;DHT22;5774;48.778;8.904;2022-07-03T01:06:52;15.80;99.90
11436;DHT22;5774;48.778;8.904;2022-07-03T01:09:23;15.80;99.90
11436;DHT22;5774;48.778;8.904;2022-07-03T01:11:57;15.70;99.90
11436;DHT22;5774;48.778;8.904;2022-07-03T01:14:32;15.70;99.90
11436;DHT22;5774;48.778;8.904;2022-07-03T01:17:03;15.70;99.90
11436;DHT22;5774;48.778;8.904;2022-07-03T01:19:38;15.70;99.90
11436;DHT22;5774;48.778;8.904;2022-07-03T01:22:16;15.70;99.90
11436;DHT22;5774;48.778;8.904;2022-07-03T01:25:02;15.60;99.90
11436;DHT22;5774;48.778;8.904;2022-07-03T01:27:45;15.60;99.90
11436;DHT22;5774;48.778;8.904;2022-07-03T01:30:14;15.60;99.90
11436;DHT22;5774;48.778;8.904;2022-07-03T01:32:42;15.50;99.90
11436;DHT22;5774;48.778;8.904;2022-07-03T01:35:11;15.50;99.90
11436;DHT22;5774;48.778;8.904;2022-07-03T01:37:39;15.50;99.90
11436;DHT22;5774;48.778;8.904;2022-07-03T01:40:07;15.50;99.90
11436;DHT22;5774;48.778;8.904;2022-07-03T01:42:35;15.40;99.90
11436;DHT22;5774;48.778;8.904;2022-07-03T01:45:07;15.40;99.90
11436;DHT22;5774;48.778;8.904;2022-07-03T01:47:37;15.30;99.90
11436;DHT22;5774;48.778;8.904;2022-07-03T01:50:04;15.30;99.90
11436;DHT22;5774;48.778;8.904;2022-07-03T01:52:32;15.30;99.90
11436;DHT22;5774;48.778;8.904;2022-07-03T01:54:59;15.30;99.90
11436;DHT22;5774;48.778;8.904;2022-07-03T01:57:28;15.20;99.90
11436;DHT22;5774;48.778;8.904;2022-07-03T02:00:03;15.20;99.90
11436;DHT22;5774;48.778;8.904;2022-07-03T02:02:39;15.10;99.90
11436;DHT22;5774;48.778;8.904;2022-07-03T02:05:11;15.10;99.90
11436;DHT22;5774;48.778;8.904;2022-07-03T02:07:43;15.10;99.90
11436;DHT22;5774;48.778;8.904;2022-07-03T02:10:15;15.10;99.90
11436;DHT22;5774;48.778;8.904;2022-07-03T02:12:45;15.10;99.90
11436;DHT22;5774;48.778;8.904;2022-07-03T02:15:16;15.00;99.90
11436;DHT22;5774;48.778;8.904;2022-07-03T02:17:46;15.00;99.90
11436;DHT22;5774;48.778;8.904;2022-07-03T02:20:14;15.00;99.90
11436;DHT22;5774;48.778;8.904;2022-07-03T02:22:42;15.00;99.90
11436;DHT22;5774;48.778;8.904;2022-07-03T02:25:12;15.00;99.90
11436;DHT22;5774;48.778;8.904;2022-07-03T02:27:43;15.00;99.90
11436;DHT22;5774;48.778;8.904;2022-07-03T02:30:11;15.00;99.90
11436;DHT22;5774;48.778;8.904;2022-07-03T02:32:39;15.00;99.90
11436;DHT22;5774;48.778;8.904;2022-07-03T02:35:12;14.90;99.90
11436;DHT22;5774;48.778;8.904;2022-07-03T02:37:44;14.90;99.90
11436;DHT22;5774;48.778;8.904;2022-07-03T02:40:17;14.90;99.90
11436;DHT22;5774;48.778;8.904;2022-07-03T02:42:54;14.90;99.90
11436;DHT22;5774;48.778;8.904;2022-07-03T02:45:32;14.90;99.90
11436;DHT22;5774;48.778;8.904;2022-07-03T02:48:05;14.90;99.90
11436;DHT22;5774;48.778;8.904;2022-07-03T02:50:36;14.90;99.90
11436;DHT22;5774;48.778;8.904;2022-07-03T02:53:06;14.90;99.90
11436;DHT22;5774;48.778;8.904;2022-07-03T02:55:39;14.90;99.90
11436;DHT22;5774;48.778;8.904;2022-07-03T02:58:14;14.90;99.90
11436;DHT22;5774;48.778;8.904;2022-07-03T03:00:52;14.80;99.90
11436;DHT22;5774;48.778;8.904;2022-07-03T03:03:22;14.80;99.90
11436;DHT22;5774;48.778;8.904;2022-07-03T03:05:54;14.80;99.90
11436;DHT22;5774;48.778;8.904;2022-07-03T03:08:24;14.80;99.90
11436;DHT22;5774;48.778;8.904;2022-07-03T03:10:59;14.80;99.90
11436;DHT22;5774;48.778;8.904;2022-07-03T03:13:29;14.80;99.90
11436;DHT22;5774;48.778;8.904;2022-07-03T03:15:58;14.80;99.90
11436;DHT22;5774;48.778;8.904;2022-07-03T03:18:30;14.70;99.90
11436;DHT22;5774;48.778;8.904;2022-07-03T03:21:03;14.70;99.90
11436;DHT22;5774;48.778;8.904;2022-07-03T03:23:33;14.70;99.90
11436;DHT22;5774;48.778;8.904;2022-07-03T03:26:04;14.70;99.90
11436;DHT22;5774;48.778;8.904;2022-07-03T03:28:31;14.70;99.90
11436;DHT22;5774;48.778;8.904;2022-07-03T03:30:59;14.70;99.90
11436;DHT22;5774;48.778;8.904;2022-07-03T03:33:26;14.60;99.90
11436;DHT22;5774;48.778;8.904;2022-07-03T03:35:53;14.60;99.90
11436;DHT22;5774;48.778;8.904;2022-07-03T03:38:21;14.60;99.90
11436;DHT22;5774;48.778;8.904;2022-07-03T03:40:48;14.60;99.90
11436;DHT22;5774;48.778;8.904;2022-07-03T03:43:16;14.60;99.90
11436;DHT22;5774;48.778;8.904;2022-07-03T03:45:43;14.60;99.90
11436;DHT22;5774;48.778;8.904;2022-07-03T03:48:09;14.60;99.90
11436;DHT22;5774;48.778;8.904;2022-07-03T03:50:36;14.60;99.90
11436;DHT22;5774;48.778;8.904;2022-07-03T03:53:03;14.50;99.90
11436;DHT22;5774;48.778;8.904;2022-07-03T03:55:32;14.50;99.90
11436;DHT22;5774;48.778;8.904;2022-07-03T03:57:59;14.50;99.90
11436;DHT22;5774;48.778;8.904;2022-07-03T04:00:26;14.50;99.90
11436;DHT22;5774;48.778;8.904;2022-07-03T04:02:53;14.50;99.90
11436;DHT22;5774;48.778;8.904;2022-07-03T04:05:20;14.50;99.90
11436;DHT22;5774;48.778;8.904;2022-07-03T04:07:47;14.50;99.90
11436;DHT22;5774;48.778;8.904;2022-07-03T04:10:14;14.50;99.90
11436;DHT22;5774;48.778;8.904;2022-07-03T04:12:42;14.50;99.90
11436;DHT22;5774;48.778;8.904;2022-07-03T04:15:09;14.50;99.90
11436;DHT22;5774;48.778;8.904;2022-07-03T04:17:36;14.50;99.90
11436;DHT22;5774;48.778;8.904;2022-07-03T04:20:03;14.40;99.90
11436;DHT22;5774;48.778;8.904;2022-07-03T04:22:31;14.40;99.90
11436;DHT22;5774;48.778;8.904;2022-07-03T04:24:57;14.40;99.90
11436;DHT22;5774;48.778;8.904;2022-07-03T04:27:24;14.40;99.90
11436;DHT22;5774;48.778;8.904;2022-07-03T04:29:52;14.50;99.90
11436;DHT22;5774;48.778;8.904;2022-07-03T04:32:19;14.50;99.90
11436;DHT22;5774;48.778;8.904;2022-07-03T04:34:45;14.50;99.90
11436;DHT22;5774;48.778;8.904;2022-07-03T04:37:12;14.50;99.90
11436;DHT22;5774;48.778;8.904;2022-07-03T04:39:39;14.50;99.90
11436;DHT22;5774;48.778;8.904;2022-07-03T04:42:06;14.50;99.90
11436;DHT22;5774;48.778;8.904;2022-07-03T04:44:33;14.50;99.90
11436;DHT22;5774;48.778;8.904;2022-07-03T04:47:01;14.50;99.90
11436;DHT22;5774;48.778;8.904;2022-07-03T04:49:27;14.50;99.90
11436;DHT22;5774;48.778;8.904;2022-07-03T04:51:54;14.50;99.90
11436;DHT22;5774;48.778;8.904;2022-07-03T04:54:21;14.60;99.90
11436;DHT22;5774;48.778;8.904;2022-07-03T04:56:48;14.60;99.90
11436;DHT22;5774;48.778;8.904;2022-07-03T04:59:15;14.60;99.90
11436;DHT22;5774;48.778;8.904;2022-07-03T05:01:42;14.60;99.90
11436;DHT22;5774;48.778;8.904;2022-07-03T05:04:10;14.70;99.90
11436;DHT22;5774;48.778;8.904;2022-07-03T05:06:36;14.70;99.90
11436;DHT22;5774;48.778;8.904;2022-07-03T05:09:03;14.70;99.90
11436;DHT22;5774;48.778;8.904;2022-07-03T05:11:30;14.80;99.90
11436;DHT22;5774;48.778;8.904;2022-07-03T05:13:57;14.80;99.90
11436;DHT22;5774;48.778;8.904;2022-07-03T05:16:23;14.90;99.90
11436;DHT22;5774;48.778;8.904;2022-07-03T05:18:50;14.90;99.90
11436;DHT22;5774;48.778;8.904;2022-07-03T05:21:18;14.90;99.90
11436;DHT22;5774;48.778;8.904;2022-07-03T05:23:45;15.00;99.90
11436;DHT22;5774;48.778;8.904;2022-07-03T05:26:12;15.00;99.90
11436;DHT22;5774;48.778;8.904;2022-07-03T05:28:38;15.10;99.90
11436;DHT22;5774;48.778;8.904;2022-07-03T05:31:05;15.10;99.90
11436;DHT22;5774;48.778;8.904;2022-07-03T05:33:32;15.20;99.90
11436;DHT22;5774;48.778;8.904;2022-07-03T05:35:59;15.30;99.90
11436;DHT22;5774;48.778;8.904;2022-07-03T05:38:28;15.40;99.90
11436;DHT22;5774;48.778;8.904;2022-07-03T05:41:12;15.50;99.90
11436;DHT22;5774;48.778;8.904;2022-07-03T05:43:39;15.60;99.90
11436;DHT22;5774;48.778;8.904;2022-07-03T05:46:05;15.70;99.90
11436;DHT22;5774;48.778;8.904;2022-07-03T05:48:32;15.90;99.90
11436;DHT22;5774;48.778;8.904;2022-07-03T05:50:59;16.00;99.90
11436;DHT22;5774;48.778;8.904;2022-07-03T05:53:27;16.10;99.90
11436;DHT22;5774;48.778;8.904;2022-07-03T05:55:55;16.30;99.90
11436;DHT22;5774;48.778;8.904;2022-07-03T05:58:22;16.30;99.90
11436;DHT22;5774;48.778;8.904;2022-07-03T06:00:48;16.40;99.90
11436;DHT22;5774;48.778;8.904;2022-07-03T06:03:15;16.60;99.90
11436;DHT22;5774;48.778;8.904;2022-07-03T06:05:42;16.70;99.90
11436;DHT22;5774;48.778;8.904;2022-07-03T06:08:09;16.70;99.90
11436;DHT22;5774;48.778;8.904;2022-07-03T06:10:37;16.90;99.90
11436;DHT22;5774;48.778;8.904;2022-07-03T06:13:03;17.00;99.90
11436;DHT22;5774;48.778;8.904;2022-07-03T06:15:30;17.10;99.90
11436;DHT22;5774;48.778;8.904;2022-07-03T06:17:57;17.20;99.90
11436;DHT22;5774;48.778;8.904;2022-07-03T06:20:24;17.40;99.90
11436;DHT22;5774;48.778;8.904;2022-07-03T06:22:53;17.50;99.90
11436;DHT22;5774;48.778;8.904;2022-07-03T06:25:20;17.70;99.90
11436;DHT22;5774;48.778;8.904;2022-07-03T06:27:48;17.90;99.90
11436;DHT22;5774;48.778;8.904;2022-07-03T06:30:15;18.20;99.90
11436;DHT22;5774;48.778;8.904;2022-07-03T06:32:42;18.50;99.90
11436;DHT22;5774;48.778;8.904;2022-07-03T06:35:09;18.80;99.90
11436;DHT22;5774;48.778;8.904;2022-07-03T06:37:36;19.20;99.90
11436;DHT22;5774;48.778;8.904;2022-07-03T06:40:03;19.70;99.90
11436;DHT22;5774;48.778;8.904;2022-07-03T06:42:30;20.20;99.90
11436;DHT22;5774;48.778;8.904;2022-07-03T06:44:58;20.80;99.90
11436;DHT22;5774;48.778;8.904;2022-07-03T06:47:25;21.30;99.90
11436;DHT22;5774;48.778;8.904;2022-07-03T06:49:52;21.90;99.90
11436;DHT22;5774;48.778;8.904;2022-07-03T06:52:18;22.60;99.90
11436;DHT22;5774;48.778;8.904;2022-07-03T06:54:45;23.10;99.90
11436;DHT22;5774;48.778;8.904;2022-07-03T06:57:12;23.60;99.90
11436;DHT22;5774;48.778;8.904;2022-07-03T06:59:40;24.20;99.90
11436;DHT22;5774;48.778;8.904;2022-07-03T07:02:09;24.70;99.90
11436;DHT22;5774;48.778;8.904;2022-07-03T07:04:35;25.30;99.90
11436;DHT22;5774;48.778;8.904;2022-07-03T07:07:02;25.70;99.90
11436;DHT22;5774;48.778;8.904;2022-07-03T07:09:29;26.20;99.90
11436;DHT22;5774;48.778;8.904;2022-07-03T07:11:56;26.60;99.90
11436;DHT22;5774;48.778;8.904;2022-07-03T07:14:23;27.10;99.90
11436;DHT22;5774;48.778;8.904;2022-07-03T07:16:50;27.60;99.90
11436;DHT22;5774;48.778;8.904;2022-07-03T07:19:18;27.90;99.90
11436;DHT22;5774;48.778;8.904;2022-07-03T07:21:44;28.30;99.90
11436;DHT22;5774;48.778;8.904;2022-07-03T07:24:12;28.60;99.90
11436;DHT22;5774;48.778;8.904;2022-07-03T07:26:38;28.90;99.90
11436;DHT22;5774;48.778;8.904;2022-07-03T07:29:05;29.20;99.90
11436;DHT22;5774;48.778;8.904;2022-07-03T07:31:32;29.50;98.20
11436;DHT22;5774;48.778;8.904;2022-07-03T07:33:59;29.60;96.70
11436;DHT22;5774;48.778;8.904;2022-07-03T07:36:27;29.70;94.80
11436;DHT22;5774;48.778;8.904;2022-07-03T07:38:54;29.80;94.50
11436;DHT22;5774;48.778;8.904;2022-07-03T07:41:20;29.80;92.50
11436;DHT22;5774;48.778;8.904;2022-07-03T07:43:47;29.80;91.30
11436;DHT22;5774;48.778;8.904;2022-07-03T07:46:14;29.80;90.40
11436;DHT22;5774;48.778;8.904;2022-07-03T07:48:40;29.80;90.90
11436;DHT22;5774;48.778;8.904;2022-07-03T07:51:07;29.90;89.70
11436;DHT22;5774;48.778;8.904;2022-07-03T07:53:38;30.00;88.60
11436;DHT22;5774;48.778;8.904;2022-07-03T07:56:04;30.00;87.50
11436;DHT22;5774;48.778;8.904;2022-07-03T07:58:31;30.00;88.00
11436;DHT22;5774;48.778;8.904;2022-07-03T08:00:58;30.00;88.00
11436;DHT22;5774;48.778;8.904;2022-07-03T08:03:42;30.00;85.70
11436;DHT22;5774;48.778;8.904;2022-07-03T08:06:26;30.10;84.90
11436;DHT22;5774;48.778;8.904;2022-07-03T08:08:54;30.30;85.40
11436;DHT22;5774;48.778;8.904;2022-07-03T08:11:21;30.40;85.20
11436;DHT22;5774;48.778;8.904;2022-07-03T08:13:48;30.50;84.40
11436;DHT22;5774;48.778;8.904;2022-07-03T08:16:14;30.70;80.40
11436;DHT22;5774;48.778;8.904;2022-07-03T08:18:42;30.80;83.10
11436;DHT22;5774;48.778;8.904;2022-07-03T08:21:09;31.00;79.00
11436;DHT22;5774;48.778;8.904;2022-07-03T08:23:36;31.10;80.00
11436;DHT22;5774;48.778;8.904;2022-07-03T08:26:05;31.30;78.10
11436;DHT22;5774;48.778;8.904;2022-07-03T08:28:32;31.40;76.60
11436;DHT22;5774;48.778;8.904;2022-07-03T08:30:58;31.40;74.30
11436;DHT22;5774;48.778;8.904;2022-07-03T08:33:25;31.40;69.20
11436;DHT22;5774;48.778;8.904;2022-07-03T08:35:52;31.30;68.50
11436;DHT22;5774;48.778;8.904;2022-07-03T08:38:19;31.20;64.70
11436;DHT22;5774;48.778;8.904;2022-07-03T08:40:45;31.20;66.00
11436;DHT22;5774;48.778;8.904;2022-07-03T08:43:14;31.10;63.80
11436;DHT22;5774;48.778;8.904;2022-07-03T08:45:41;31.00;63.70
11436;DHT22;5774;48.778;8.904;2022-07-03T08:48:08;30.90;63.30
11436;DHT22;5774;48.778;8.904;2022-07-03T08:50:35;30.80;63.20
11436;DHT22;5774;48.778;8.904;2022-07-03T08:53:02;30.70;61.80
11436;DHT22;5774;48.778;8.904;2022-07-03T08:55:29;30.50;62.70
11436;DHT22;5774;48.778;8.904;2022-07-03T08:57:56;30.30;63.70
11436;DHT22;5774;48.778;8.904;2022-07-03T09:00:26;30.20;61.70
11436;DHT22;5774;48.778;8.904;2022-07-03T09:02:53;29.90;62.70
11436;DHT22;5774;48.778;8.904;2022-07-03T09:05:21;29.80;62.90
11436;DHT22;5774;48.778;8.904;2022-07-03T09:07:48;29.60;64.60
11436;DHT22;5774;48.778;8.904;2022-07-03T09:10:15;29.20;62.10
11436;DHT22;5774;48.778;8.904;2022-07-03T09:12:42;28.90;66.10
11436;DHT22;5774;48.778;8.904;2022-07-03T09:15:10;28.50;62.10
11436;DHT22;5774;48.778;8.904;2022-07-03T09:17:39;28.20;65.10
11436;DHT22;5774;48.778;8.904;2022-07-03T09:20:07;27.80;64.00
11436;DHT22;5774;48.778;8.904;2022-07-03T09:22:35;27.60;68.50
11436;DHT22;5774;48.778;8.904;2022-07-03T09:25:04;27.20;69.80
11436;DHT22;5774;48.778;8.904;2022-07-03T09:27:32;27.00;69.40
11436;DHT22;5774;48.778;8.904;2022-07-03T09:30:00;26.90;67.60
11436;DHT22;5774;48.778;8.904;2022-07-03T09:32:30;26.60;70.00
11436;DHT22;5774;48.778;8.904;2022-07-03T09:35:18;26.40;69.80
11436;DHT22;5774;48.778;8.904;2022-07-03T09:37:50;26.10;70.00
11436;DHT22;5774;48.778;8.904;2022-07-03T09:40:19;25.90;71.00
11436;DHT22;5774;48.778;8.904;2022-07-03T09:42:59;25.80;73.60
11436;DHT22;5774;48.778;8.904;2022-07-03T09:45:27;25.70;74.50
11436;DHT22;5774;48.778;8.904;2022-07-03T09:48:21;25.50;72.90
11436;DHT22;5774;48.778;8.904;2022-07-03T09:50:50;25.30;74.30
11436;DHT22;5774;48.778;8.904;2022-07-03T09:53:43;25.30;75.00
11436;DHT22;5774;48.778;8.904;2022-07-03T09:56:10;25.20;74.20
11436;DHT22;5774;48.778;8.904;2022-07-03T09:58:38;25.10;78.90
11436;DHT22;5774;48.778;8.904;2022-07-03T10:01:17;25.10;79.40
11436;DHT22;5774;48.778;8.904;2022-07-03T10:03:46;25.00;76.20
11436;DHT22;5774;48.778;8.904;2022-07-03T10:06:15;25.00;80.30
11436;DHT22;5774;48.778;8.904;2022-07-03T10:08:42;25.00;80.20
11436;DHT22;5774;48.778;8.904;2022-07-03T10:11:09;25.00;76.50
11436;DHT22;5774;48.778;8.904;2022-07-03T10:13:37;25.00;76.60
11436;DHT22;5774;48.778;8.904;2022-07-03T10:16:05;25.00;75.70
11436;DHT22;5774;48.778;8.904;2022-07-03T10:18:34;25.00;76.50
11436;DHT22;5774;48.778;8.904;2022-07-03T10:21:05;25.00;78.20
11436;DHT22;5774;48.778;8.904;2022-07-03T10:23:34;25.00;81.20
11436;DHT22;5774;48.778;8.904;2022-07-03T10:26:01;25.00;83.70
11436;DHT22;5774;48.778;8.904;2022-07-03T10:28:28;25.00;80.40
11436;DHT22;5774;48.778;8.904;2022-07-03T10:30:57;25.00;80.60
11436;DHT22;5774;48.778;8.904;2022-07-03T10:33:25;25.00;80.60
11436;DHT22;5774;48.778;8.904;2022-07-03T10:35:52;25.00;82.20
11436;DHT22;5774;48.778;8.904;2022-07-03T10:38:24;25.10;86.30
11436;DHT22;5774;48.778;8.904;2022-07-03T10:40:59;25.20;81.50
11436;DHT22;5774;48.778;8.904;2022-07-03T10:43:46;25.10;82.60
11436;DHT22;5774;48.778;8.904;2022-07-03T10:46:31;25.10;80.90
11436;DHT22;5774;48.778;8.904;2022-07-03T10:49:08;25.10;82.10
11436;DHT22;5774;48.778;8.904;2022-07-03T10:51:52;25.20;83.70
11436;DHT22;5774;48.778;8.904;2022-07-03T10:54:21;25.20;83.50
11436;DHT22;5774;48.778;8.904;2022-07-03T10:57:05;25.30;83.00
11436;DHT22;5774;48.778;8.904;2022-07-03T10:59:56;25.30;78.80
11436;DHT22;5774;48.778;8.904;2022-07-03T11:02:34;25.40;80.50
11436;DHT22;5774;48.778;8.904;2022-07-03T11:05:03;25.30;78.80
11436;DHT22;5774;48.778;8.904;2022-07-03T11:07:33;25.30;80.20
11436;DHT22;5774;48.778;8.904;2022-07-03T11:12:58;25.30;79.60
11436;DHT22;5774;48.778;8.904;2022-07-03T11:15:25;25.30;80.40
11436;DHT22;5774;48.778;8.904;2022-07-03T11:18:08;25.40;78.10
11436;DHT22;5774;48.778;8.904;2022-07-03T11:20:46;25.50;78.50
11436;DHT22;5774;48.778;8.904;2022-07-03T11:23:27;25.60;78.40
11436;DHT22;5774;48.778;8.904;2022-07-03T11:25:55;25.70;76.20
11436;DHT22;5774;48.778;8.904;2022-07-03T11:31:17;25.90;75.50
11436;DHT22;5774;48.778;8.904;2022-07-03T11:33:45;25.80;73.90
11436;DHT22;5774;48.778;8.904;2022-07-03T11:36:22;25.90;73.20
11436;DHT22;5774;48.778;8.904;2022-07-03T11:38:53;25.80;75.30
11436;DHT22;5774;48.778;8.904;2022-07-03T11:41:30;25.80;75.80
11436;DHT22;5774;48.778;8.904;2022-07-03T11:43:59;25.80;75.50
11436;DHT22;5774;48.778;8.904;2022-07-03T11:46:28;25.80;75.90
11436;DHT22;5774;48.778;8.904;2022-07-03T11:49:03;25.80;78.00
11436;DHT22;5774;48.778;8.904;2022-07-03T11:51:31;25.90;78.80
11436;DHT22;5774;48.778;8.904;2022-07-03T11:53:57;26.00;78.50
11436;DHT22;5774;48.778;8.904;2022-07-03T11:56:24;26.00;77.60
11436;DHT22;5774;48.778;8.904;2022-07-03T11:58:51;26.00;80.60
11436;DHT22;5774;48.778;8.904;2022-07-03T12:01:30;26.10;79.30
11436;DHT22;5774;48.778;8.904;2022-07-03T12:04:05;26.20;78.70
11436;DHT22;5774;48.778;8.904;2022-07-03T12:06:33;26.20;79.60
11436;DHT22;5774;48.778;8.904;2022-07-03T12:09:01;26.30;76.90
11436;DHT22;5774;48.778;8.904;2022-07-03T12:11:27;26.30;77.00
11436;DHT22;5774;48.778;8.904;2022-07-03T12:13:54;26.40;76.90
11436;DHT22;5774;48.778;8.904;2022-07-03T12:16:21;26.50;79.10
11436;DHT22;5774;48.778;8.904;2022-07-03T12:19:03;26.60;77.60
11436;DHT22;5774;48.778;8.904;2022-07-03T12:21:35;26.70;76.70
11436;DHT22;5774;48.778;8.904;2022-07-03T12:24:08;26.80;76.40
11436;DHT22;5774;48.778;8.904;2022-07-03T12:26:35;26.90;74.90
11436;DHT22;5774;48.778;8.904;2022-07-03T12:29:03;27.00;72.90
11436;DHT22;5774;48.778;8.904;2022-07-03T12:31:33;27.30;73.60
11436;DHT22;5774;48.778;8.904;2022-07-03T12:34:00;27.40;72.10
11436;DHT22;5774;48.778;8.904;2022-07-03T12:36:28;27.60;75.70
11436;DHT22;5774;48.778;8.904;2022-07-03T12:38:56;27.90;79.80
11436;DHT22;5774;48.778;8.904;2022-07-03T12:41:25;28.10;71.40
11436;DHT22;5774;48.778;8.904;2022-07-03T12:43:53;28.30;70.10
11436;DHT22;5774;48.778;8.904;2022-07-03T12:46:21;28.40;69.70
11436;DHT22;5774;48.778;8.904;2022-07-03T12:48:50;28.60;69.70
11436;DHT22;5774;48.778;8.904;2022-07-03T12:51:40;28.80;68.70
11436;DHT22;5774;48.778;8.904;2022-07-03T12:54:09;29.00;77.00
11436;DHT22;5774;48.778;8.904;2022-07-03T12:56:37;29.00;73.60
11436;DHT22;5774;48.778;8.904;2022-07-03T12:59:04;29.00;73.20
11436;DHT22;5774;48.778;8.904;2022-07-03T13:01:42;28.90;72.80
11436;DHT22;5774;48.778;8.904;2022-07-03T13:04:11;29.10;75.30
11436;DHT22;5774;48.778;8.904;2022-07-03T13:06:43;28.90;74.10
11436;DHT22;5774;48.778;8.904;2022-07-03T13:09:10;28.90;73.60
11436;DHT22;5774;48.778;8.904;2022-07-03T13:11:38;29.10;74.60
11436;DHT22;5774;48.778;8.904;2022-07-03T13:14:06;28.90;73.70
11436;DHT22;5774;48.778;8.904;2022-07-03T13:16:35;28.80;71.60
11436;DHT22;5774;48.778;8.904;2022-07-03T13:19:04;28.90;74.70
11436;DHT22;5774;48.778;8.904;2022-07-03T13:21:32;29.00;73.30
11436;DHT22;5774;48.778;8.904;2022-07-03T13:24:00;28.70;71.60
11436;DHT22;5774;48.778;8.904;2022-07-03T13:26:27;28.70;72.00
11436;DHT22;5774;48.778;8.904;2022-07-03T13:28:54;28.80;73.40
11436;DHT22;5774;48.778;8.904;2022-07-03T13:31:20;29.00;73.60
11436;DHT22;5774;48.778;8.904;2022-07-03T13:33:47;28.90;71.70
11436;DHT22;5774;48.778;8.904;2022-07-03T13:36:14;28.90;72.30
11436;DHT22;5774;48.778;8.904;2022-07-03T13:38:44;29.00;73.10
11436;DHT22;5774;48.778;8.904;2022-07-03T13:41:11;28.90;74.00
11436;DHT22;5774;48.778;8.904;2022-07-03T13:43:38;29.00;73.80
11436;DHT22;5774;48.778;8.904;2022-07-03T13:46:05;28.80;72.10
11436;DHT22;5774;48.778;8.904;2022-07-03T13:48:32;28.70;71.90
11436;DHT22;5774;48.778;8.904;2022-07-03T13:50:59;28.80;74.10
11436;DHT22;5774;48.778;8.904;2022-07-03T13:53:25;28.80;71.20
11436;DHT22;5774;48.778;8.904;2022-07-03T13:55:55;28.80;70.20
11436;DHT22;5774;48.778;8.904;2022-07-03T13:58:23;28.70;72.00
11436;DHT22;5774;48.778;8.904;2022-07-03T14:00:50;28.70;71.10
11436;DHT22;5774;48.778;8.904;2022-07-03T14:03:17;28.80;71.20
11436;DHT22;5774;48.778;8.904;2022-07-03T14:05:44;29.20;72.20
11436;DHT22;5774;48.778;8.904;2022-07-03T14:08:12;29.40;71.40
11436;DHT22;5774;48.778;8.904;2022-07-03T14:10:39;29.40;69.50
11436;DHT22;5774;48.778;8.904;2022-07-03T14:13:07;29.50;69.70
11436;DHT22;5774;48.778;8.904;2022-07-03T14:15:34;29.30;68.10
11436;DHT22;5774;48.778;8.904;2022-07-03T14:18:00;29.30;67.40
11436;DHT22;5774;48.778;8.904;2022-07-03T14:20:28;28.90;68.70
11436;DHT22;5774;48.778;8.904;2022-07-03T14:22:55;28.80;68.50
11436;DHT22;5774;48.778;8.904;2022-07-03T14:25:22;28.70;69.70
11436;DHT22;5774;48.778;8.904;2022-07-03T14:27:49;28.70;69.80
11436;DHT22;5774;48.778;8.904;2022-07-03T14:30:34;28.80;69.90
11436;DHT22;5774;48.778;8.904;2022-07-03T14:33:19;28.80;71.60
11436;DHT22;5774;48.778;8.904;2022-07-03T14:35:45;29.00;69.70
11436;DHT22;5774;48.778;8.904;2022-07-03T14:38:12;29.00;69.00
11436;DHT22;5774;48.778;8.904;2022-07-03T14:40:39;29.10;67.00
11436;DHT22;5774;48.778;8.904;2022-07-03T14:43:06;29.20;68.10
11436;DHT22;5774;48.778;8.904;2022-07-03T14:45:32;29.10;65.30
11436;DHT22;5774;48.778;8.904;2022-07-03T14:48:01;29.00;66.20
11436;DHT22;5774;48.778;8.904;2022-07-03T14:50:27;29.00;67.30
11436;DHT22;5774;48.778;8.904;2022-07-03T14:52:54;28.90;67.60
11436;DHT22;5774;48.778;8.904;2022-07-03T14:55:21;29.00;65.50
11436;DHT22;5774;48.778;8.904;2022-07-03T14:57:52;28.90;66.90
11436;DHT22;5774;48.778;8.904;2022-07-03T15:00:19;29.00;64.90
11436;DHT22;5774;48.778;8.904;2022-07-03T15:02:55;29.00;65.40
11436;DHT22;5774;48.778;8.904;2022-07-03T15:05:29;29.00;66.70
11436;DHT22;5774;48.778;8.904;2022-07-03T15:08:02;29.20;66.90
11436;DHT22;5774;48.778;8.904;2022-07-03T15:10:31;29.30;65.30
11436;DHT22;5774;48.778;8.904;2022-07-03T15:12:58;29.30;65.00
11436;DHT22;5774;48.778;8.904;2022-07-03T15:15:26;29.50;65.00
11436;DHT22;5774;48.778;8.904;2022-07-03T15:17:57;29.50;66.40
11436;DHT22;5774;48.778;8.904;2022-07-03T15:20:25;29.80;64.90
11436;DHT22;5774;48.778;8.904;2022-07-03T15:22:52;30.00;64.00
11436;DHT22;5774;48.778;8.904;2022-07-03T15:25:19;30.30;64.90
11436;DHT22;5774;48.778;8.904;2022-07-03T15:27:49;29.80;61.70
11436;DHT22;5774;48.778;8.904;2022-07-03T15:30:17;29.90;63.80
11436;DHT22;5774;48.778;8.904;2022-07-03T15:32:44;29.70;63.00
11436;DHT22;5774;48.778;8.904;2022-07-03T15:35:13;29.50;64.30
11436;DHT22;5774;48.778;8.904;2022-07-03T15:37:44;29.50;65.60
11436;DHT22;5774;48.778;8.904;2022-07-03T15:40:18;29.30;64.50
11436;DHT22;5774;48.778;8.904;2022-07-03T15:42:56;29.40;64.50
11436;DHT22;5774;48.778;8.904;2022-07-03T15:45:34;29.60;64.80
11436;DHT22;5774;48.778;8.904;2022-07-03T15:48:07;29.30;63.70
11436;DHT22;5774;48.778;8.904;2022-07-03T15:50:39;29.60;63.60
11436;DHT22;5774;48.778;8.904;2022-07-03T15:53:10;29.70;63.00
11436;DHT22;5774;48.778;8.904;2022-07-03T15:55:41;29.70;64.30
11436;DHT22;5774;48.778;8.904;2022-07-03T15:58:10;29.90;63.70
11436;DHT22;5774;48.778;8.904;2022-07-03T16:00:38;30.10;64.80
11436;DHT22;5774;48.778;8.904;2022-07-03T16:03:10;29.90;62.50
11436;DHT22;5774;48.778;8.904;2022-07-03T16:05:40;30.00;62.50